createdAt,value
2016-03-27T00:00:12.636Z,3.01
2016-03-27T00:01:12.627Z,3.01
2016-03-27T00:02:12.629Z,2.94
2016-03-27T00:03:12.632Z,2.94
2016-03-27T00:04:12.650Z,2.87
2016-03-27T00:05:12.638Z,2.91
2016-03-27T00:06:12.655Z,2.83
2016-03-27T00:07:12.627Z,2.91
2016-03-27T00:08:12.630Z,2.88
2016-03-27T00:09:12.633Z,2.94
2016-03-27T00:10:12.635Z,2.94
2016-03-27T00:11:12.622Z,2.79
2016-03-27T00:12:12.625Z,2.87
2016-03-27T00:13:12.627Z,2.83
2016-03-27T00:14:12.615Z,2.85
2016-03-27T00:15:12.632Z,2.88
2016-03-27T00:16:12.635Z,2.88
2016-03-27T00:17:12.622Z,2.83
2016-03-27T00:18:12.635Z,2.83
2016-03-27T00:19:12.623Z,2.85
2016-03-27T00:20:12.596Z,2.79
2016-03-27T00:21:12.583Z,2.76
2016-03-27T00:22:12.555Z,2.65
2016-03-27T00:23:12.546Z,2.64
2016-03-27T00:24:12.543Z,2.68
2016-03-27T00:25:12.541Z,2.68
2016-03-27T00:26:12.538Z,2.68
2016-03-27T00:27:12.535Z,2.58
2016-03-27T00:28:12.518Z,2.61
2016-03-27T00:29:12.534Z,2.46
2016-03-27T00:30:12.519Z,2.58
2016-03-27T00:31:12.535Z,2.52
2016-03-27T00:32:12.520Z,2.44
2016-03-27T00:33:12.505Z,2.54
2016-03-27T00:34:12.522Z,2.58
2016-03-27T00:35:12.509Z,2.51
2016-03-27T00:36:12.526Z,2.52
2016-03-27T00:37:12.512Z,2.47
2016-03-27T00:38:12.515Z,2.59
2016-03-27T00:39:12.502Z,2.5
2016-03-27T00:40:12.521Z,2.5
2016-03-27T00:41:12.523Z,2.51
2016-03-27T00:42:12.510Z,2.46
2016-03-27T00:43:12.512Z,2.36
2016-03-27T00:44:12.516Z,2.34
2016-03-27T00:45:12.518Z,2.32
2016-03-27T00:46:12.942Z,2.25
2016-03-27T00:47:12.508Z,2.19
2016-03-27T00:48:12.511Z,2.15
2016-03-27T00:49:12.498Z,2.07
2016-03-27T00:50:14.097Z,2.08
2016-03-27T00:51:12.503Z,2.08
2016-03-27T00:52:12.506Z,2.07
2016-03-27T00:53:12.509Z,2.01
2016-03-27T00:54:12.511Z,1.93
2016-03-27T00:55:12.497Z,2.01
2016-03-27T00:56:12.501Z,1.95
2016-03-27T00:57:12.503Z,1.93
2016-03-27T00:58:12.506Z,1.95
2016-03-27T00:59:12.509Z,1.97
2016-03-27T01:00:12.496Z,1.89
2016-03-27T01:01:12.499Z,1.89
2016-03-27T01:02:12.486Z,1.86
2016-03-27T01:03:12.504Z,1.81
2016-03-27T01:04:12.522Z,1.84
2016-03-27T01:05:12.525Z,1.75
2016-03-27T01:06:12.512Z,1.81
2016-03-27T01:07:12.516Z,1.81
2016-03-27T01:08:12.506Z,1.79
2016-03-27T01:09:12.508Z,1.81
2016-03-27T01:10:12.511Z,1.74
2016-03-27T01:11:12.498Z,1.7
2016-03-27T01:12:12.500Z,1.71
2016-03-27T01:13:12.504Z,1.64
2016-03-27T01:14:12.491Z,1.74
2016-03-27T01:15:12.493Z,1.64
2016-03-27T01:16:12.497Z,1.63
2016-03-27T01:17:12.499Z,1.7
2016-03-27T01:18:12.501Z,1.57
2016-03-27T01:19:12.505Z,1.58
2016-03-27T01:20:12.491Z,1.6
2016-03-27T01:21:12.494Z,1.67
2016-03-27T01:22:12.497Z,1.71
2016-03-27T01:23:12.499Z,1.63
2016-03-27T01:24:12.502Z,1.71
2016-03-27T01:25:12.489Z,1.52
2016-03-27T01:26:12.491Z,1.6
2016-03-27T01:27:12.493Z,1.68
2016-03-27T01:28:12.497Z,1.53
2016-03-27T01:29:12.499Z,1.63
2016-03-27T01:30:12.502Z,1.6
2016-03-27T01:31:12.490Z,1.63
2016-03-27T01:32:12.492Z,1.57
2016-03-27T01:33:12.495Z,1.52
2016-03-27T01:34:12.498Z,1.45
2016-03-27T01:35:12.500Z,1.48
2016-03-27T01:36:12.503Z,1.5
2016-03-27T01:37:12.506Z,1.43
2016-03-27T01:38:12.492Z,1.46
2016-03-27T01:39:12.495Z,1.49
2016-03-27T01:40:12.483Z,1.45
2016-03-27T01:41:12.486Z,1.45
2016-03-27T01:42:12.489Z,1.49
2016-03-27T01:43:12.491Z,1.45
2016-03-27T01:44:12.508Z,1.45
2016-03-27T01:45:12.496Z,1.43
2016-03-27T01:46:12.483Z,1.4
2016-03-27T01:47:12.502Z,1.32
2016-03-27T01:48:12.504Z,1.27
2016-03-27T01:49:12.491Z,1.34
2016-03-27T01:50:12.494Z,1.36
2016-03-27T01:51:12.497Z,1.34
2016-03-27T01:52:12.499Z,1.4
2016-03-27T01:53:12.486Z,1.31
2016-03-27T01:54:12.489Z,1.36
2016-03-27T01:55:12.491Z,1.3
2016-03-27T01:56:12.479Z,1.38
2016-03-27T01:57:12.497Z,1.49
2016-03-27T01:58:12.484Z,1.4
2016-03-27T01:59:12.487Z,1.42
2016-03-27T02:00:12.474Z,1.45
2016-03-27T02:01:12.492Z,1.48
2016-03-27T02:02:12.495Z,1.31
2016-03-27T02:03:12.482Z,1.31
2016-03-27T02:04:12.500Z,1.31
2016-03-27T02:05:12.488Z,1.34
2016-03-27T02:06:12.474Z,1.28
2016-03-27T02:07:12.440Z,1.3
2016-03-27T02:08:12.488Z,1.31
2016-03-27T02:09:12.334Z,1.36
2016-03-27T02:10:13.985Z,1.27
2016-03-27T02:11:12.490Z,1.28
2016-03-27T02:12:12.478Z,1.32
2016-03-27T02:13:12.480Z,1.34
2016-03-27T02:14:12.484Z,1.32
2016-03-27T02:15:12.501Z,1.31
2016-03-27T02:16:12.488Z,1.34
2016-03-27T02:17:12.616Z,1.34
2016-03-27T02:18:12.478Z,1.3
2016-03-27T02:19:12.481Z,1.27
2016-03-27T02:20:12.484Z,1.16
2016-03-27T02:21:12.470Z,1.22
2016-03-27T02:22:12.473Z,1.3
2016-03-27T02:23:12.476Z,1.21
2016-03-27T02:24:12.478Z,1.2
2016-03-27T02:25:12.480Z,1.25
2016-03-27T02:26:12.483Z,1.21
2016-03-27T02:27:12.486Z,1.25
2016-03-27T02:28:12.474Z,1.22
2016-03-27T02:29:12.477Z,1.14
2016-03-27T02:30:12.463Z,1.16
2016-03-27T02:31:12.482Z,1.16
2016-03-27T02:32:12.469Z,1.13
2016-03-27T02:33:12.471Z,1.13
2016-03-27T02:34:12.474Z,1.12
2016-03-27T02:35:12.476Z,1.12
2016-03-27T02:36:12.465Z,1.1
2016-03-27T02:37:12.467Z,1.12
2016-03-27T02:38:12.470Z,1.04
2016-03-27T02:39:12.473Z,1.13
2016-03-27T02:40:12.475Z,1.09
2016-03-27T02:41:12.478Z,1.03
2016-03-27T02:42:12.465Z,1.04
2016-03-27T02:43:12.467Z,1.09
2016-03-27T02:44:12.486Z,1.09
2016-03-27T02:45:12.488Z,1
2016-03-27T02:46:12.491Z,0.99
2016-03-27T02:47:12.462Z,0.89
2016-03-27T02:48:12.481Z,0.88
2016-03-27T02:49:12.467Z,0.73
2016-03-27T02:50:12.470Z,0.82
2016-03-27T02:51:12.473Z,0.74
2016-03-27T02:52:12.460Z,0.73
2016-03-27T02:53:12.463Z,0.84
2016-03-27T02:54:12.466Z,0.81
2016-03-27T02:55:12.468Z,0.74
2016-03-27T02:56:12.455Z,0.84
2016-03-27T02:57:12.474Z,0.81
2016-03-27T02:58:12.460Z,0.84
2016-03-27T02:59:12.480Z,0.74
2016-03-27T03:00:12.482Z,0.76
2016-03-27T03:01:12.468Z,0.84
2016-03-27T03:02:12.535Z,0.73
2016-03-27T03:03:12.458Z,0.68
2016-03-27T03:04:12.461Z,0.76
2016-03-27T03:05:12.464Z,0.71
2016-03-27T03:06:12.451Z,0.78
2016-03-27T03:07:12.454Z,0.64
2016-03-27T03:08:12.457Z,0.73
2016-03-27T03:09:12.459Z,0.64
2016-03-27T03:10:12.445Z,0.7
2016-03-27T03:11:12.449Z,0.68
2016-03-27T03:12:12.451Z,0.67
2016-03-27T03:13:12.470Z,0.73
2016-03-27T03:14:12.457Z,0.66
2016-03-27T03:15:12.459Z,0.64
2016-03-27T03:16:12.462Z,0.61
2016-03-27T03:17:12.746Z,0.56
2016-03-27T03:18:12.452Z,0.59
2016-03-27T03:19:12.455Z,0.48
2016-03-27T03:20:12.458Z,0.44
2016-03-27T03:21:12.444Z,0.48
2016-03-27T03:22:12.464Z,0.52
2016-03-27T03:23:12.450Z,0.45
2016-03-27T03:24:12.452Z,0.44
2016-03-27T03:25:12.456Z,0.44
2016-03-27T03:26:12.442Z,0.44
2016-03-27T03:27:12.461Z,0.47
2016-03-27T03:28:12.463Z,0.49
2016-03-27T03:29:12.450Z,0.49
2016-03-27T03:30:12.452Z,0.61
2016-03-27T03:31:12.456Z,0.52
2016-03-27T03:32:12.490Z,0.52
2016-03-27T03:33:12.445Z,0.55
2016-03-27T03:34:12.449Z,0.58
2016-03-27T03:35:12.435Z,0.66
2016-03-27T03:36:12.453Z,0.51
2016-03-27T03:37:12.441Z,0.64
2016-03-27T03:38:12.443Z,0.55
2016-03-27T03:39:12.446Z,0.48
2016-03-27T03:40:12.449Z,0.55
2016-03-27T03:41:12.467Z,0.59
2016-03-27T03:42:12.454Z,0.58
2016-03-27T03:43:12.457Z,0.64
2016-03-27T03:44:12.443Z,0.68
2016-03-27T03:45:12.446Z,0.7
2016-03-27T03:46:12.449Z,0.67
2016-03-27T03:47:12.451Z,0.61
2016-03-27T03:48:12.439Z,0.73
2016-03-27T03:49:12.442Z,0.7
2016-03-27T03:50:12.428Z,0.67
2016-03-27T03:51:12.447Z,0.71
2016-03-27T03:52:12.434Z,0.77
2016-03-27T03:53:12.436Z,0.74
2016-03-27T03:54:12.439Z,0.71
2016-03-27T03:55:12.286Z,0.73
2016-03-27T03:56:12.429Z,0.76
2016-03-27T03:57:12.433Z,0.76
2016-03-27T03:58:12.435Z,0.82
2016-03-27T03:59:12.438Z,0.7
2016-03-27T04:00:12.424Z,0.82
2016-03-27T04:01:12.427Z,0.85
2016-03-27T04:02:12.852Z,0.81
2016-03-27T04:03:12.432Z,0.76
2016-03-27T04:04:12.435Z,0.77
2016-03-27T04:05:12.422Z,0.76
2016-03-27T04:06:12.425Z,0.73
2016-03-27T04:07:12.256Z,0.73
2016-03-27T04:08:12.432Z,0.74
2016-03-27T04:09:12.434Z,0.68
2016-03-27T04:10:12.422Z,0.58
2016-03-27T04:11:12.425Z,0.7
2016-03-27T04:12:12.442Z,0.63
2016-03-27T04:13:12.430Z,0.63
2016-03-27T04:14:12.433Z,0.59
2016-03-27T04:15:12.436Z,0.64
2016-03-27T04:16:12.438Z,0.64
2016-03-27T04:17:12.488Z,0.63
2016-03-27T04:18:12.412Z,0.61
2016-03-27T04:19:12.431Z,0.63
2016-03-27T04:20:12.417Z,0.64
2016-03-27T04:21:12.419Z,0.68
2016-03-27T04:22:12.423Z,0.64
2016-03-27T04:23:12.425Z,0.66
2016-03-27T04:24:12.428Z,0.7
2016-03-27T04:25:12.431Z,0.7
2016-03-27T04:26:12.433Z,0.66
2016-03-27T04:27:12.421Z,0.77
2016-03-27T04:28:12.424Z,0.67
2016-03-27T04:29:12.410Z,0.59
2016-03-27T04:30:12.412Z,0.66
2016-03-27T04:31:12.416Z,0.77
2016-03-27T04:32:12.309Z,0.7
2016-03-27T04:33:12.406Z,0.68
2016-03-27T04:34:12.409Z,0.68
2016-03-27T04:35:12.411Z,0.67
2016-03-27T04:36:12.414Z,0.66
2016-03-27T04:37:12.417Z,0.61
2016-03-27T04:38:12.420Z,0.68
2016-03-27T04:39:12.406Z,0.68
2016-03-27T04:40:12.409Z,0.63
2016-03-27T04:41:12.411Z,0.63
2016-03-27T04:42:12.399Z,0.67
2016-03-27T04:43:12.417Z,0.68
2016-03-27T04:44:12.403Z,0.71
2016-03-27T04:45:12.406Z,0.7
2016-03-27T04:46:12.409Z,0.68
2016-03-27T04:47:12.600Z,0.66
2016-03-27T04:48:12.399Z,0.71
2016-03-27T04:49:12.402Z,0.76
2016-03-27T04:50:12.405Z,0.76
2016-03-27T04:51:12.407Z,0.76
2016-03-27T04:52:12.410Z,0.77
2016-03-27T04:53:12.413Z,0.76
2016-03-27T04:54:12.399Z,0.73
2016-03-27T04:55:12.418Z,0.74
2016-03-27T04:56:12.405Z,0.76
2016-03-27T04:57:12.407Z,0.81
2016-03-27T04:58:12.394Z,0.74
2016-03-27T04:59:12.397Z,0.73
2016-03-27T05:00:12.399Z,0.73
2016-03-27T05:01:12.402Z,0.74
2016-03-27T05:02:12.405Z,0.88
2016-03-27T05:03:12.392Z,0.82
2016-03-27T05:04:12.395Z,0.84
2016-03-27T05:05:12.398Z,0.76
2016-03-27T05:06:12.400Z,0.84
2016-03-27T05:07:12.404Z,0.71
2016-03-27T05:08:12.406Z,0.74
2016-03-27T05:09:12.393Z,0.84
2016-03-27T05:10:12.396Z,0.76
2016-03-27T05:11:12.398Z,0.76
2016-03-27T05:12:12.386Z,0.71
2016-03-27T05:13:12.388Z,0.78
2016-03-27T05:14:12.391Z,0.73
2016-03-27T05:15:12.393Z,0.77
2016-03-27T05:16:12.397Z,0.73
2016-03-27T05:17:12.352Z,0.74
2016-03-27T05:18:12.386Z,0.77
2016-03-27T05:19:12.389Z,0.85
2016-03-27T05:20:12.391Z,0.84
2016-03-27T05:21:12.378Z,0.76
2016-03-27T05:22:12.381Z,0.89
2016-03-27T05:23:12.383Z,0.89
2016-03-27T05:24:12.386Z,1.03
2016-03-27T05:25:12.389Z,1.06
2016-03-27T05:26:12.391Z,1.18
2016-03-27T05:27:12.395Z,1.49
2016-03-27T05:28:12.397Z,1.57
2016-03-27T05:29:12.368Z,1.76
2016-03-27T05:30:12.372Z,1.67
2016-03-27T05:31:12.374Z,1.68
2016-03-27T05:32:12.392Z,1.88
2016-03-27T05:33:12.379Z,1.98
2016-03-27T05:34:12.382Z,2.36
2016-03-27T05:35:12.369Z,2.61
2016-03-27T05:36:12.372Z,2.82
2016-03-27T05:37:12.374Z,3.09
2016-03-27T05:38:12.376Z,3.34
2016-03-27T05:39:12.380Z,3.37
2016-03-27T05:40:12.382Z,3.52
2016-03-27T05:41:12.384Z,3.59
2016-03-27T05:42:12.388Z,3.55
2016-03-27T05:43:12.390Z,3.68
2016-03-27T05:44:12.378Z,3.63
2016-03-27T05:45:12.381Z,3.59
2016-03-27T05:46:12.367Z,3.64
2016-03-27T05:47:12.261Z,3.67
2016-03-27T05:48:12.372Z,3.64
2016-03-27T05:49:12.375Z,3.66
2016-03-27T05:50:12.378Z,3.74
2016-03-27T05:51:12.381Z,3.78
2016-03-27T05:52:12.383Z,3.95
2016-03-27T05:53:12.372Z,3.92
2016-03-27T05:54:12.374Z,3.94
2016-03-27T05:55:12.391Z,4.07
2016-03-27T05:56:12.394Z,4.06
2016-03-27T05:57:12.397Z,4.25
2016-03-27T05:58:12.384Z,4.36
2016-03-27T05:59:12.387Z,4.45
2016-03-27T06:00:12.390Z,4.48
2016-03-27T06:01:12.392Z,4.45
2016-03-27T06:02:12.396Z,4.48
2016-03-27T06:03:12.382Z,4.58
2016-03-27T06:04:12.368Z,4.74
2016-03-27T06:05:12.372Z,4.79
2016-03-27T06:06:12.374Z,5.16
2016-03-27T06:07:12.376Z,5.83
2016-03-27T06:08:12.380Z,6.62
2016-03-27T06:09:12.398Z,7.7
2016-03-27T06:10:12.401Z,8.44
2016-03-27T06:11:12.388Z,9.29
2016-03-27T06:12:12.390Z,9.9
2016-03-27T06:13:12.378Z,10.45
2016-03-27T06:14:12.381Z,10.84
2016-03-27T06:15:12.383Z,11.2
2016-03-27T06:16:12.385Z,11.59
2016-03-27T06:17:12.389Z,12
2016-03-27T06:18:12.391Z,12.32
2016-03-27T06:19:12.394Z,12.81
2016-03-27T06:20:12.397Z,13.21
2016-03-27T06:21:12.399Z,13.36
2016-03-27T06:22:12.402Z,13.62
2016-03-27T06:23:12.405Z,13.65
2016-03-27T06:24:12.407Z,13.85
2016-03-27T06:25:12.394Z,14.12
2016-03-27T06:26:12.413Z,14.15
2016-03-27T06:27:12.415Z,14.25
2016-03-27T06:28:12.403Z,14.38
2016-03-27T06:29:12.405Z,14.4
2016-03-27T06:30:12.407Z,14.59
2016-03-27T06:31:12.411Z,14.59
2016-03-27T06:32:12.413Z,14.58
2016-03-27T06:33:12.415Z,14.53
2016-03-27T06:34:12.419Z,14.48
2016-03-27T06:35:12.421Z,14.41
2016-03-27T06:36:12.424Z,14.28
2016-03-27T06:37:12.426Z,14.2
2016-03-27T06:38:12.429Z,13.98
2016-03-27T06:39:12.448Z,13.71
2016-03-27T06:40:12.450Z,13.73
2016-03-27T06:41:12.437Z,13.49
2016-03-27T06:42:12.440Z,13.3
2016-03-27T06:43:12.442Z,13.19
2016-03-27T06:44:12.462Z,13.12
2016-03-27T06:45:12.448Z,13.02
2016-03-27T06:46:12.451Z,12.93
2016-03-27T06:47:12.453Z,12.83
2016-03-27T06:48:12.456Z,12.75
2016-03-27T06:49:12.459Z,12.61
2016-03-27T06:50:12.462Z,12.55
2016-03-27T06:51:12.464Z,12.43
2016-03-27T06:52:12.467Z,12.36
2016-03-27T06:53:12.469Z,12.28
2016-03-27T06:54:12.472Z,12.26
2016-03-27T06:55:12.474Z,12.25
2016-03-27T06:56:12.478Z,12.29
2016-03-27T06:57:12.480Z,12.29
2016-03-27T06:58:12.482Z,12.28
2016-03-27T06:59:12.486Z,12.18
2016-03-27T07:00:12.488Z,12
2016-03-27T07:01:12.491Z,11.95
2016-03-27T07:02:12.478Z,11.81
2016-03-27T07:03:12.480Z,11.78
2016-03-27T07:04:12.499Z,11.6
2016-03-27T07:05:12.502Z,11.49
2016-03-27T07:06:12.504Z,11.13
2016-03-27T07:07:12.507Z,10.75
2016-03-27T07:08:12.526Z,10.31
2016-03-27T07:09:12.513Z,9.63
2016-03-27T07:10:12.515Z,9.34
2016-03-27T07:11:12.517Z,8.97
2016-03-27T07:12:12.521Z,8.77
2016-03-27T07:13:12.523Z,8.6
2016-03-27T07:14:12.509Z,8.35
2016-03-27T07:15:12.529Z,8.16
2016-03-27T07:16:12.531Z,8.06
2016-03-27T07:17:12.534Z,8.02
2016-03-27T07:18:12.521Z,7.81
2016-03-27T07:19:12.539Z,7.83
2016-03-27T07:20:12.542Z,7.67
2016-03-27T07:21:12.545Z,7.59
2016-03-27T07:22:12.547Z,7.64
2016-03-27T07:23:12.534Z,7.47
2016-03-27T07:24:12.537Z,7.43
2016-03-27T07:25:12.556Z,7.53
2016-03-27T07:26:12.542Z,7.48
2016-03-27T07:27:12.545Z,7.43
2016-03-27T07:28:12.548Z,7.58
2016-03-27T07:29:12.551Z,7.53
2016-03-27T07:30:12.552Z,7.58
2016-03-27T07:31:12.556Z,7.67
2016-03-27T07:32:12.543Z,7.75
2016-03-27T07:33:12.561Z,7.84
2016-03-27T07:34:12.564Z,7.96
2016-03-27T07:35:12.566Z,8.06
2016-03-27T07:36:12.569Z,8.36
2016-03-27T07:37:12.572Z,8.44
2016-03-27T07:38:12.574Z,8.56
2016-03-27T07:39:12.562Z,8.77
2016-03-27T07:40:12.565Z,8.99
2016-03-27T07:41:12.567Z,9
2016-03-27T07:42:12.586Z,9.16
2016-03-27T07:43:12.573Z,9.21
2016-03-27T07:44:12.575Z,9.31
2016-03-27T07:45:12.579Z,9.4
2016-03-27T07:46:12.581Z,9.48
2016-03-27T07:47:12.583Z,9.52
2016-03-27T07:48:12.586Z,9.64
2016-03-27T07:49:12.589Z,9.7
2016-03-27T07:50:12.623Z,9.74
2016-03-27T07:51:12.594Z,9.74
2016-03-27T07:52:12.597Z,9.87
2016-03-27T07:53:12.584Z,9.94
2016-03-27T07:54:12.586Z,10.07
2016-03-27T07:55:12.589Z,10.12
2016-03-27T07:56:12.592Z,10.38
2016-03-27T07:57:12.594Z,10.64
2016-03-27T07:58:12.598Z,10.95
2016-03-27T07:59:12.600Z,11.35
2016-03-27T08:00:12.602Z,11.78
2016-03-27T08:01:12.606Z,12.15
2016-03-27T08:02:12.608Z,12.35
2016-03-27T08:03:12.610Z,12.47
2016-03-27T08:04:12.613Z,12.57
2016-03-27T08:05:12.616Z,12.75
2016-03-27T08:06:12.618Z,12.93
2016-03-27T08:07:12.607Z,12.99
2016-03-27T08:08:12.609Z,13.05
2016-03-27T08:09:12.611Z,13.05
2016-03-27T08:10:12.615Z,13.26
2016-03-27T08:11:12.617Z,13.16
2016-03-27T08:12:12.619Z,13.13
2016-03-27T08:13:12.623Z,13.26
2016-03-27T08:14:12.625Z,13.17
2016-03-27T08:15:12.628Z,13.52
2016-03-27T08:16:12.646Z,13.95
2016-03-27T08:17:12.633Z,14.3
2016-03-27T08:18:12.636Z,14.52
2016-03-27T08:19:12.639Z,14.71
2016-03-27T08:20:12.641Z,14.85
2016-03-27T08:21:12.644Z,15.05
2016-03-27T08:22:12.647Z,15.11
2016-03-27T08:23:12.650Z,15.07
2016-03-27T08:24:12.652Z,15.08
2016-03-27T08:25:12.639Z,15.02
2016-03-27T08:26:12.657Z,15.1
2016-03-27T08:27:12.660Z,15.07
2016-03-27T08:28:12.663Z,15.07
2016-03-27T08:29:12.665Z,15.07
2016-03-27T08:30:12.668Z,15.07
2016-03-27T08:31:12.655Z,15.18
2016-03-27T08:32:12.674Z,15.25
2016-03-27T08:33:12.722Z,15.26
2016-03-27T08:34:12.679Z,15.27
2016-03-27T08:35:12.682Z,15.18
2016-03-27T08:36:12.668Z,15.07
2016-03-27T08:37:12.687Z,14.96
2016-03-27T08:38:12.674Z,14.82
2016-03-27T08:39:12.692Z,14.66
2016-03-27T08:40:12.680Z,14.62
2016-03-27T08:41:12.698Z,14.85
2016-03-27T08:42:12.684Z,15.11
2016-03-27T08:43:12.687Z,15.45
2016-03-27T08:44:12.706Z,15.9
2016-03-27T08:45:12.692Z,16.43
2016-03-27T08:46:12.711Z,17.17
2016-03-27T08:47:12.714Z,18.05
2016-03-27T08:48:12.716Z,18.94
2016-03-27T08:49:12.720Z,19.79
2016-03-27T08:50:12.768Z,20.59
2016-03-27T08:51:12.708Z,21.28
2016-03-27T08:52:12.728Z,21.92
2016-03-27T08:53:12.730Z,22.55
2016-03-27T08:54:12.575Z,23.17
2016-03-27T08:55:12.720Z,23.67
2016-03-27T08:56:12.738Z,24.25
2016-03-27T08:57:12.725Z,24.65
2016-03-27T08:58:12.744Z,25.14
2016-03-27T08:59:12.667Z,25.37
2016-03-27T09:00:12.749Z,25.56
2016-03-27T09:01:12.735Z,26.06
2016-03-27T09:02:12.754Z,26.63
2016-03-27T09:03:12.991Z,26.81
2016-03-27T09:04:12.759Z,26.67
2016-03-27T09:05:12.763Z,26.61
2016-03-27T09:06:12.765Z,26.26
2016-03-27T09:07:12.768Z,25.89
2016-03-27T09:08:12.752Z,25.34
2016-03-27T09:09:12.755Z,24.65
2016-03-27T09:10:12.774Z,23.89
2016-03-27T09:11:12.776Z,23.58
2016-03-27T09:12:12.779Z,23.44
2016-03-27T09:13:12.782Z,23.28
2016-03-27T09:14:12.785Z,23.17
2016-03-27T09:15:12.787Z,23.02
2016-03-27T09:16:12.790Z,22.61
2016-03-27T09:17:12.793Z,22.23
2016-03-27T09:18:12.920Z,21.88
2016-03-27T09:19:12.798Z,21.59
2016-03-27T09:20:12.801Z,21.14
2016-03-27T09:21:12.803Z,20.74
2016-03-27T09:22:12.807Z,20.37
2016-03-27T09:23:12.809Z,20.1
2016-03-27T09:24:12.807Z,19.84
2016-03-27T09:25:12.798Z,19.62
2016-03-27T09:26:12.788Z,19.48
2016-03-27T09:27:12.779Z,19.22
2016-03-27T09:28:12.785Z,19.23
2016-03-27T09:29:12.764Z,19.17
2016-03-27T09:30:12.794Z,19.22
2016-03-27T09:31:12.776Z,19.38
2016-03-27T09:32:12.774Z,19.48
2016-03-27T09:33:13.289Z,19.59
2016-03-27T09:34:12.772Z,19.93
2016-03-27T09:35:12.773Z,20.4
2016-03-27T09:36:12.790Z,20.85
2016-03-27T09:37:12.776Z,21.13
2016-03-27T09:38:12.777Z,21.4
2016-03-27T09:39:12.779Z,21.6
2016-03-27T09:40:12.797Z,21.62
2016-03-27T09:41:12.799Z,21.59
2016-03-27T09:42:12.802Z,21.59
2016-03-27T09:43:12.787Z,21.62
2016-03-27T09:44:12.805Z,21.56
2016-03-27T09:45:12.808Z,21.62
2016-03-27T09:46:12.810Z,21.4
2016-03-27T09:47:12.813Z,21.15
2016-03-27T09:48:13.143Z,20.88
2016-03-27T09:49:12.817Z,20.63
2016-03-27T09:50:12.820Z,20.55
2016-03-27T09:51:12.838Z,20.32
2016-03-27T09:52:12.826Z,20.15
2016-03-27T09:53:12.843Z,19.77
2016-03-27T09:54:12.846Z,19.63
2016-03-27T09:55:12.848Z,19.41
2016-03-27T09:56:12.852Z,19.19
2016-03-27T09:57:12.854Z,19.16
2016-03-27T09:58:12.856Z,19.19
2016-03-27T09:59:12.860Z,19.19
2016-03-27T10:00:12.862Z,19.08
2016-03-27T10:01:12.708Z,19.01
2016-03-27T10:02:12.868Z,18.98
2016-03-27T10:03:13.199Z,18.83
2016-03-27T10:04:12.889Z,18.64
2016-03-27T10:05:12.876Z,18.68
2016-03-27T10:06:12.910Z,18.52
2016-03-27T10:07:12.897Z,18.43
2016-03-27T10:08:12.884Z,18.42
2016-03-27T10:09:12.902Z,18.34
2016-03-27T10:10:12.905Z,18.24
2016-03-27T10:11:12.924Z,18.16
2016-03-27T10:12:12.910Z,17.88
2016-03-27T10:13:12.929Z,17.75
2016-03-27T10:14:12.916Z,17.68
2016-03-27T10:15:12.918Z,17.68
2016-03-27T10:16:12.937Z,17.71
2016-03-27T10:17:12.940Z,17.72
2016-03-27T10:18:13.379Z,17.6
2016-03-27T10:19:12.960Z,17.46
2016-03-27T10:20:12.948Z,17.42
2016-03-27T10:21:12.950Z,17.34
2016-03-27T10:22:12.954Z,17.37
2016-03-27T10:23:12.956Z,17.42
2016-03-27T10:24:12.958Z,17.53
2016-03-27T10:25:12.962Z,17.65
2016-03-27T10:26:12.979Z,17.69
2016-03-27T10:27:12.981Z,17.88
2016-03-27T10:28:12.985Z,17.97
2016-03-27T10:29:12.987Z,18.13
2016-03-27T10:30:12.990Z,18.15
2016-03-27T10:31:12.992Z,18.11
2016-03-27T10:32:12.995Z,18.06
2016-03-27T10:33:13.122Z,17.86
2016-03-27T10:34:13.001Z,17.63
2016-03-27T10:35:13.003Z,17.56
2016-03-27T10:36:13.021Z,17.53
2016-03-27T10:37:13.009Z,17.69
2016-03-27T10:38:13.011Z,17.52
2016-03-27T10:39:13.030Z,17.46
2016-03-27T10:40:13.017Z,17.57
2016-03-27T10:41:13.035Z,17.72
2016-03-27T10:42:13.038Z,17.95
2016-03-27T10:43:13.041Z,18.05
2016-03-27T10:44:13.043Z,18.27
2016-03-27T10:45:13.046Z,18.43
2016-03-27T10:46:13.049Z,18.55
2016-03-27T10:47:13.068Z,18.61
2016-03-27T10:48:13.086Z,18.74
2016-03-27T10:49:13.057Z,18.81
2016-03-27T10:50:13.059Z,18.68
2016-03-27T10:51:13.078Z,18.7
2016-03-27T10:52:13.081Z,18.79
2016-03-27T10:53:13.083Z,18.71
2016-03-27T10:54:13.086Z,18.68
2016-03-27T10:55:13.089Z,18.67
2016-03-27T10:56:13.076Z,18.66
2016-03-27T10:57:13.094Z,18.66
2016-03-27T10:58:13.112Z,18.6
2016-03-27T10:59:13.115Z,18.58
2016-03-27T11:00:13.117Z,18.63
2016-03-27T11:01:13.136Z,18.6
2016-03-27T11:02:13.123Z,18.68
2016-03-27T11:03:13.125Z,18.78
2016-03-27T11:04:13.129Z,18.98
2016-03-27T11:05:13.131Z,19.26
2016-03-27T11:06:13.149Z,19.42
2016-03-27T11:07:13.137Z,19.6
2016-03-27T11:08:13.139Z,19.53
2016-03-27T11:09:13.157Z,19.52
2016-03-27T11:10:13.160Z,19.44
2016-03-27T11:11:13.194Z,19.48
2016-03-27T11:12:13.150Z,19.52
2016-03-27T11:13:13.168Z,19.48
2016-03-27T11:14:13.171Z,19.52
2016-03-27T11:15:13.174Z,19.49
2016-03-27T11:16:13.176Z,19.48
2016-03-27T11:17:13.194Z,19.29
2016-03-27T11:18:13.197Z,19.16
2016-03-27T11:19:13.184Z,19.09
2016-03-27T11:20:13.203Z,19.08
2016-03-27T11:21:13.221Z,18.89
2016-03-27T11:22:13.207Z,18.85
2016-03-27T11:23:13.211Z,18.86
2016-03-27T11:24:13.229Z,18.92
2016-03-27T11:25:13.215Z,18.98
2016-03-27T11:26:13.234Z,19.22
2016-03-27T11:27:13.221Z,19.09
2016-03-27T11:28:13.224Z,19.24
2016-03-27T11:29:13.242Z,19.3
2016-03-27T11:30:13.245Z,19.37
2016-03-27T11:31:13.264Z,19.41
2016-03-27T11:32:13.250Z,19.35
2016-03-27T11:33:13.144Z,19.37
2016-03-27T11:34:13.256Z,19.2
2016-03-27T11:35:13.259Z,19.15
2016-03-27T11:36:13.293Z,19.11
2016-03-27T11:37:13.280Z,19.05
2016-03-27T11:38:13.266Z,19.11
2016-03-27T11:39:13.128Z,19.2
2016-03-27T11:40:13.288Z,19.16
2016-03-27T11:41:13.306Z,19.26
2016-03-27T11:42:13.293Z,19.27
2016-03-27T11:43:13.327Z,19.11
2016-03-27T11:44:13.314Z,19.01
2016-03-27T11:45:13.301Z,19
2016-03-27T11:46:13.335Z,19.05
2016-03-27T11:47:13.322Z,19.08
2016-03-27T11:48:13.309Z,18.97
2016-03-27T11:49:13.327Z,18.89
2016-03-27T11:50:13.330Z,18.83
2016-03-27T11:51:13.333Z,18.78
2016-03-27T11:52:13.335Z,18.7
2016-03-27T11:53:13.354Z,18.79
2016-03-27T11:54:13.357Z,18.94
2016-03-27T11:55:13.343Z,18.86
2016-03-27T11:56:13.362Z,19
2016-03-27T11:57:13.365Z,18.97
2016-03-27T11:58:13.368Z,18.98
2016-03-27T11:59:13.370Z,18.89
2016-03-27T12:00:13.373Z,18.92
2016-03-27T12:01:13.376Z,18.78
2016-03-27T12:02:13.394Z,18.76
2016-03-27T12:03:13.396Z,18.68
2016-03-27T12:04:13.400Z,18.63
2016-03-27T12:05:13.402Z,18.49
2016-03-27T12:06:13.436Z,18.52
2016-03-27T12:07:13.408Z,18.36
2016-03-27T12:08:13.410Z,18.43
2016-03-27T12:09:13.413Z,18.37
2016-03-27T12:10:13.416Z,18.39
2016-03-27T12:11:13.450Z,18.55
2016-03-27T12:12:13.436Z,18.74
2016-03-27T12:13:13.424Z,18.89
2016-03-27T12:14:13.441Z,19.04
2016-03-27T12:15:13.444Z,19.15
2016-03-27T12:16:13.431Z,19.15
2016-03-27T12:17:13.466Z,19.17
2016-03-27T12:18:13.483Z,19
2016-03-27T12:19:13.455Z,18.92
2016-03-27T12:20:13.457Z,18.78
2016-03-27T12:21:13.477Z,18.79
2016-03-27T12:22:13.494Z,18.81
2016-03-27T12:23:13.481Z,18.71
2016-03-27T12:24:13.500Z,18.73
2016-03-27T12:25:13.487Z,18.66
2016-03-27T12:26:13.504Z,18.73
2016-03-27T12:27:13.492Z,18.66
2016-03-27T12:28:13.510Z,18.74
2016-03-27T12:29:13.498Z,18.64
2016-03-27T12:30:13.515Z,18.53
2016-03-27T12:31:13.503Z,18.48
2016-03-27T12:32:13.521Z,18.46
2016-03-27T12:33:13.508Z,18.42
2016-03-27T12:34:13.526Z,18.28
2016-03-27T12:35:13.529Z,18.21
2016-03-27T12:36:13.532Z,18.09
2016-03-27T12:37:13.534Z,18.08
2016-03-27T12:38:13.537Z,18.09
2016-03-27T12:39:13.556Z,17.95
2016-03-27T12:40:13.542Z,17.98
2016-03-27T12:41:13.545Z,18
2016-03-27T12:42:13.563Z,18.02
2016-03-27T12:43:13.567Z,18.09
2016-03-27T12:44:13.569Z,17.97
2016-03-27T12:45:13.587Z,17.88
2016-03-27T12:46:13.574Z,17.75
2016-03-27T12:47:13.577Z,17.65
2016-03-27T12:48:13.596Z,17.63
2016-03-27T12:49:13.582Z,17.42
2016-03-27T12:50:13.602Z,17.39
2016-03-27T12:51:13.604Z,17.35
2016-03-27T12:52:13.606Z,17.3
2016-03-27T12:53:13.625Z,17.24
2016-03-27T12:54:13.596Z,17.38
2016-03-27T12:55:13.615Z,17.46
2016-03-27T12:56:13.632Z,17.72
2016-03-27T12:57:13.620Z,17.76
2016-03-27T12:58:13.638Z,17.91
2016-03-27T12:59:13.640Z,18.05
2016-03-27T13:00:13.643Z,18.19
2016-03-27T13:01:13.631Z,18.43
2016-03-27T13:02:13.695Z,18.46
2016-03-27T13:03:13.651Z,18.52
2016-03-27T13:04:13.670Z,18.52
2016-03-27T13:05:13.657Z,18.42
2016-03-27T13:06:13.659Z,18.41
2016-03-27T13:07:13.662Z,18.42
2016-03-27T13:08:13.680Z,18.12